Terminal Aerodrome Forecast
Issued by NWS Wilmington, OH

Current Version | Previous Version | Graphics & Text | Print | Product List | Glossary On
Versions: 1 2 3 4 5 6 7 8 9 10 11 12 13 14 15 16 17 18 19 20 21 22 23 24 25 26 27 28 29 30 31 32
237
FTUS41 KILN 301543 AAD
TAFILN
TAF AMD
KILN 301543Z 3016/0112 14005KT 5SM BR VCSH SCT003 OVC005
      TEMPO 3016/3018 3SM -SHRA BR OVC002
     FM301800 15006KT P6SM VCSH SCT002 BKN015
     FM302200 15003KT P6SM BKN040
     FM010600 00000KT 4SM BR BKN040=

USA.gov is the U.S. government's official web portal to all federal, state and local government web resources and services.